Milan, Italy
Current Conditions -  °F | °C
As of 7:20 PM on Thursday 27 Nov 2014 (Local Time) from LIML Reporting Station
Haze Haze  
Wind Chill: 45°   Ceiling: 2000
Heat Index: 45°   Visibility: 3mi
Dew Point: 45°   Wind: 3mph
Humidity: 100%   Direction: 210°SSW
Pressure: 29.97"   Gusts: NA
Location:  45.46°N, 9.19°E
Report Text: LIML 271820Z 21003KT 5000 BR SCT008 BKN020 07/07 Q1015 NOSIG
Loading
Personal Weather Stations






























Interactive Weather Map New forecast layout! Learn more

10-Day Weather Forecast

Advertisements
Track Severe Weather on mobile